createdAt,value
2017-11-29T00:01:37.057Z,33.63
2017-11-29T00:04:04.547Z,36.97
2017-11-29T00:06:32.791Z,43.73
2017-11-29T00:09:00.397Z,30.17
2017-11-29T00:11:27.905Z,44.57
2017-11-29T00:13:55.386Z,41.97
2017-11-29T00:16:22.850Z,46.40
2017-11-29T00:18:50.343Z,33.97
2017-11-29T00:21:17.800Z,42.67
2017-11-29T00:23:45.287Z,41.73
2017-11-29T00:26:12.790Z,31.97
2017-11-29T00:28:41.024Z,40.57
2017-11-29T00:31:08.515Z,32.17
2017-11-29T00:33:35.970Z,36.43
2017-11-29T00:36:03.454Z,33.13
2017-11-29T00:38:30.952Z,29.77
2017-11-29T00:40:58.414Z,34.67
2017-11-29T00:43:26.668Z,32.17
2017-11-29T00:45:54.151Z,34.83
2017-11-29T00:48:21.647Z,49.03
2017-11-29T00:50:49.154Z,27.73
2017-11-29T00:53:17.539Z,26.10
2017-11-29T00:55:45.070Z,30.37
2017-11-29T00:58:12.551Z,40.70
2017-11-29T01:00:40.039Z,37.67
2017-11-29T01:03:07.526Z,31.83
2017-11-29T01:05:34.990Z,25.63
2017-11-29T01:08:02.476Z,30.83
2017-11-29T01:10:29.935Z,31.07
2017-11-29T01:12:57.426Z,36.80
2017-11-29T01:15:24.894Z,33.67
2017-11-29T01:17:52.390Z,32.30
2017-11-29T01:20:19.977Z,29.90
2017-11-29T01:22:48.900Z,30.67
2017-11-29T01:25:17.228Z,35.33
2017-11-29T01:27:44.708Z,34.90
2017-11-29T01:30:12.567Z,36.30
2017-11-29T01:32:40.154Z,28.87
2017-11-29T01:35:07.664Z,25.00
2017-11-29T01:37:35.895Z,31.50
2017-11-29T01:40:03.358Z,34.37
2017-11-29T01:42:30.859Z,23.00
2017-11-29T01:44:59.103Z,26.40
2017-11-29T01:47:26.542Z,40.23
2017-11-29T01:49:54.055Z,33.07
2017-11-29T01:52:22.322Z,37.63
2017-11-29T01:54:49.791Z,35.10
2017-11-29T01:57:17.280Z,26.60
2017-11-29T01:59:44.777Z,30.33
2017-11-29T02:02:12.243Z,32.23
2017-11-29T02:04:39.718Z,29.30
2017-11-29T02:07:07.977Z,32.10
2017-11-29T02:09:35.428Z,25.50
2017-11-29T02:12:02.888Z,28.30
2017-11-29T02:14:30.379Z,24.27
2017-11-29T02:16:57.865Z,27.77
2017-11-29T02:19:25.362Z,34.03
2017-11-29T02:21:52.839Z,26.57
2017-11-29T02:24:20.285Z,28.20
2017-11-29T02:26:47.779Z,25.10
2017-11-29T02:29:15.253Z,28.30
2017-11-29T02:31:42.769Z,35.03
2017-11-29T02:34:11.031Z,29.30
2017-11-29T02:36:38.527Z,34.73
2017-11-29T02:39:05.983Z,39.60
2017-11-29T02:41:45.239Z,36.50
2017-11-29T02:44:12.708Z,38.63
2017-11-29T02:46:40.255Z,36.53
2017-11-29T02:49:07.819Z,30.73
2017-11-29T02:51:35.303Z,30.90
2017-11-29T02:54:02.790Z,28.90
2017-11-29T02:56:31.026Z,36.30
2017-11-29T02:58:58.491Z,25.97
2017-11-29T03:01:26.043Z,33.20
2017-11-29T03:03:53.587Z,27.43
2017-11-29T03:06:21.079Z,30.23
2017-11-29T03:08:48.551Z,30.17
2017-11-29T03:11:16.039Z,43.90
2017-11-29T03:13:44.279Z,27.53
2017-11-29T03:16:11.759Z,31.80
2017-11-29T03:18:40.150Z,36.63
2017-11-29T03:21:08.449Z,30.93
2017-11-29T03:23:35.924Z,21.77
2017-11-29T03:26:03.526Z,36.00
2017-11-29T03:28:31.039Z,24.30
2017-11-29T03:30:58.534Z,25.07
2017-11-29T03:33:26.021Z,29.05
2017-11-29T03:35:54.266Z,25.27
2017-11-29T03:38:21.721Z,25.23
2017-11-29T03:40:49.199Z,32.93
2017-11-29T03:43:16.653Z,25.90
2017-11-29T03:45:44.137Z,34.90
2017-11-29T03:48:12.391Z,25.20
2017-11-29T03:50:39.942Z,35.23
2017-11-29T03:53:07.403Z,27.50
2017-11-29T03:55:34.867Z,29.17
2017-11-29T03:58:02.318Z,27.50
2017-11-29T04:00:29.803Z,25.05
2017-11-29T04:02:58.018Z,31.00
2017-11-29T04:05:25.499Z,26.27
2017-11-29T04:07:53.143Z,23.37
2017-11-29T04:10:21.514Z,21.87
2017-11-29T04:12:49.030Z,25.50
2017-11-29T04:15:16.586Z,37.80
2017-11-29T04:17:44.806Z,32.73
2017-11-29T04:20:12.331Z,35.13
2017-11-29T04:22:40.549Z,40.57
2017-11-29T04:25:08.016Z,31.30
2017-11-29T04:27:36.264Z,31.93
2017-11-29T04:30:03.762Z,34.47
2017-11-29T04:32:31.223Z,36.30
2017-11-29T04:34:58.715Z,39.83
2017-11-29T04:37:26.996Z,40.63
2017-11-29T04:39:55.300Z,35.83
2017-11-29T04:42:22.778Z,45.33
2017-11-29T04:44:50.315Z,32.77
2017-11-29T04:47:17.779Z,30.80
2017-11-29T04:49:45.284Z,40.27
2017-11-29T04:52:12.790Z,34.97
2017-11-29T04:54:40.307Z,37.33
2017-11-29T04:57:08.543Z,32.70
2017-11-29T04:59:36.131Z,31.00
2017-11-29T05:02:03.623Z,32.90
2017-11-29T05:04:31.124Z,32.00
2017-11-29T05:06:58.651Z,39.17
2017-11-29T05:09:26.895Z,32.97
2017-11-29T05:11:54.482Z,34.93
2017-11-29T05:14:23.651Z,36.43
2017-11-29T05:16:51.120Z,42.90
2017-11-29T05:19:19.378Z,49.17
2017-11-29T05:21:46.846Z,43.10
2017-11-29T05:24:14.327Z,49.43
2017-11-29T05:26:41.832Z,40.63
2017-11-29T05:29:10.058Z,32.40
2017-11-29T05:31:38.282Z,40.27
2017-11-29T05:34:05.776Z,39.77
2017-11-29T05:36:33.327Z,47.60
2017-11-29T05:39:00.791Z,30.63
2017-11-29T05:41:28.298Z,34.27
2017-11-29T05:43:55.755Z,34.40
2017-11-29T05:46:24.574Z,41.60
2017-11-29T05:48:52.834Z,50.30
2017-11-29T05:51:20.303Z,46.30
2017-11-29T05:53:47.787Z,51.07
2017-11-29T05:56:15.256Z,39.23
2017-11-29T05:58:42.736Z,41.33
2017-11-29T06:01:10.979Z,52.93
2017-11-29T06:03:38.431Z,43.10
2017-11-29T06:06:06.821Z,41.27
2017-11-29T06:08:34.274Z,43.77
2017-11-29T06:11:01.825Z,55.40
2017-11-29T06:13:29.307Z,39.90
2017-11-29T06:15:56.799Z,52.40
2017-11-29T06:18:24.419Z,58.47
2017-11-29T06:20:51.878Z,45.00
2017-11-29T06:23:19.383Z,49.93
2017-11-29T06:25:46.848Z,44.97
2017-11-29T06:28:14.346Z,54.23
2017-11-29T06:30:41.852Z,58.23
2017-11-29T06:33:09.316Z,58.67
2017-11-29T06:35:36.860Z,45.47
2017-11-29T06:38:04.388Z,60.80
2017-11-29T06:40:31.868Z,54.60
2017-11-29T06:42:59.353Z,53.10
2017-11-29T06:45:26.835Z,53.87
2017-11-29T06:47:55.710Z,52.42
2017-11-29T06:50:23.448Z,54.03
2017-11-29T06:52:50.976Z,55.90
2017-11-29T06:55:18.435Z,38.23
2017-11-29T06:57:46.196Z,51.43
2017-11-29T07:00:13.673Z,74.77
2017-11-29T07:02:41.937Z,50.20
2017-11-29T07:05:09.427Z,59.13
2017-11-29T07:07:37.788Z,59.70
2017-11-29T07:10:06.039Z,85.43
2017-11-29T07:12:33.547Z,62.07
2017-11-29T07:15:01.009Z,78.47
2017-11-29T07:17:28.474Z,59.50
2017-11-29T07:19:55.948Z,52.20
2017-11-29T07:22:23.443Z,72.70
2017-11-29T07:24:50.906Z,62.23
2017-11-29T07:27:18.372Z,64.43
2017-11-29T07:29:46.643Z,49.10
2017-11-29T07:32:14.207Z,74.13
2017-11-29T07:34:41.674Z,53.90
2017-11-29T07:37:09.174Z,59.17
2017-11-29T07:39:36.637Z,54.93
2017-11-29T07:42:04.119Z,54.43
2017-11-29T07:44:31.603Z,56.90
2017-11-29T07:46:59.831Z,58.27
2017-11-29T07:49:27.319Z,85.13
2017-11-29T07:51:54.830Z,73.67
2017-11-29T07:54:22.327Z,65.07
2017-11-29T07:56:49.784Z,60.83
2017-11-29T07:59:17.279Z,71.20
2017-11-29T08:01:45.518Z,64.17
2017-11-29T08:04:13.001Z,61.23
2017-11-29T08:06:40.484Z,64.37
2017-11-29T08:09:08.144Z,68.63
2017-11-29T08:11:35.649Z,61.53
2017-11-29T08:14:03.110Z,65.17
2017-11-29T08:16:30.595Z,76.50
2017-11-29T08:18:58.166Z,68.67
2017-11-29T08:21:25.634Z,61.57
2017-11-29T08:23:53.895Z,72.33
2017-11-29T08:26:21.349Z,63.83
2017-11-29T08:28:49.607Z,69.83
2017-11-29T08:31:17.075Z,78.93
2017-11-29T08:33:44.567Z,75.00
2017-11-29T08:36:12.031Z,82.50
2017-11-29T08:38:39.527Z,76.67
2017-11-29T08:41:07.011Z,51.63
2017-11-29T08:43:34.475Z,54.00
2017-11-29T08:46:01.946Z,54.97
2017-11-29T08:48:30.208Z,37.50
2017-11-29T08:50:57.683Z,59.70
2017-11-29T08:53:25.163Z,57.73
2017-11-29T08:55:52.657Z,44.93
2017-11-29T08:58:20.151Z,49.37
2017-11-29T09:00:48.393Z,52.47
2017-11-29T09:03:15.882Z,48.40
2017-11-29T09:05:43.363Z,53.93
2017-11-29T09:08:10.847Z,36.63
2017-11-29T09:10:38.384Z,56.73
2017-11-29T09:13:05.845Z,54.97
2017-11-29T09:15:33.303Z,41.47
2017-11-29T09:18:00.814Z,44.73
2017-11-29T09:20:28.271Z,72.77
2017-11-29T09:22:56.522Z,57.60
2017-11-29T09:25:24.068Z,56.80
2017-11-29T09:27:51.544Z,57.50
2017-11-29T09:30:19.079Z,60.80
2017-11-29T09:32:46.535Z,47.60
2017-11-29T09:35:14.014Z,51.77
2017-11-29T09:37:41.494Z,51.37
2017-11-29T09:40:08.951Z,47.40
2017-11-29T09:42:36.478Z,38.20
2017-11-29T09:45:03.963Z,42.53
2017-11-29T09:47:31.442Z,75.63
2017-11-29T09:49:58.927Z,52.07
2017-11-29T09:52:26.448Z,40.40
2017-11-29T09:54:53.906Z,39.27
2017-11-29T09:57:21.387Z,32.53
2017-11-29T09:59:48.954Z,39.70
2017-11-29T10:02:16.529Z,44.27
2017-11-29T10:04:43.996Z,43.27
2017-11-29T10:07:11.547Z,41.92
2017-11-29T10:09:39.821Z,46.67
2017-11-29T10:12:08.078Z,46.30
2017-11-29T10:14:35.539Z,45.80
2017-11-29T10:17:03.071Z,54.03
2017-11-29T10:19:30.599Z,58.93
2017-11-29T10:21:58.076Z,39.43
2017-11-29T10:24:25.561Z,51.53
2017-11-29T10:26:53.028Z,36.83
2017-11-29T10:29:20.589Z,42.10
2017-11-29T10:31:48.055Z,47.00
2017-11-29T10:34:15.591Z,32.53
2017-11-29T10:36:43.071Z,43.83
2017-11-29T10:39:11.305Z,38.60
2017-11-29T10:41:38.867Z,28.07
2017-11-29T10:44:06.346Z,29.87
2017-11-29T10:46:33.872Z,41.67
2017-11-29T10:49:01.328Z,43.47
2017-11-29T10:51:28.991Z,37.70
2017-11-29T10:53:56.495Z,46.47
2017-11-29T10:56:23.970Z,35.57
2017-11-29T10:58:52.243Z,35.87
2017-11-29T11:01:19.772Z,50.57
2017-11-29T11:03:47.251Z,46.50
2017-11-29T11:06:14.752Z,50.10
2017-11-29T11:08:42.212Z,41.10
2017-11-29T11:11:09.715Z,37.97
2017-11-29T11:13:37.176Z,52.23
2017-11-29T11:16:04.724Z,51.57
2017-11-29T11:18:32.200Z,42.93
2017-11-29T11:20:59.698Z,37.03
2017-11-29T11:23:27.159Z,49.63
2017-11-29T11:25:54.644Z,38.90
2017-11-29T11:28:22.129Z,53.60
2017-11-29T11:30:49.595Z,44.80
2017-11-29T11:33:17.088Z,42.60
2017-11-29T11:35:45.311Z,47.73
2017-11-29T11:38:12.800Z,37.80
2017-11-29T11:40:41.069Z,46.90
2017-11-29T11:43:08.578Z,49.90
2017-11-29T11:45:36.073Z,40.53
2017-11-29T11:48:03.539Z,56.67
2017-11-29T11:50:32.394Z,44.03
2017-11-29T11:52:59.864Z,40.97
2017-11-29T11:55:27.340Z,44.30
2017-11-29T11:57:54.817Z,40.63
2017-11-29T12:00:22.287Z,36.40
2017-11-29T12:02:49.779Z,36.47
2017-11-29T12:05:17.244Z,40.97
2017-11-29T12:07:44.742Z,43.80
2017-11-29T12:10:12.235Z,49.27
2017-11-29T12:12:40.482Z,52.17
2017-11-29T12:15:07.934Z,47.40
2017-11-29T12:17:35.431Z,47.67
2017-11-29T12:20:02.881Z,54.93
2017-11-29T12:22:31.138Z,46.70
2017-11-29T12:24:58.643Z,47.70
2017-11-29T12:27:26.159Z,46.63
2017-11-29T12:29:53.646Z,33.97
2017-11-29T12:32:21.095Z,36.97
2017-11-29T12:34:48.584Z,31.33
2017-11-29T12:37:16.164Z,30.73
2017-11-29T12:39:43.663Z,33.27
2017-11-29T12:42:11.115Z,39.17
2017-11-29T12:44:39.408Z,46.97
2017-11-29T12:47:06.913Z,34.93
2017-11-29T12:49:46.263Z,38.20
2017-11-29T12:52:13.747Z,33.70
2017-11-29T12:54:41.982Z,40.33
2017-11-29T12:57:09.577Z,39.40
2017-11-29T12:59:37.086Z,42.73
2017-11-29T13:02:04.615Z,48.53
2017-11-29T13:04:33.867Z,33.10
2017-11-29T13:07:01.389Z,41.70
2017-11-29T13:09:28.868Z,37.80
2017-11-29T13:11:56.339Z,38.67
2017-11-29T13:14:23.828Z,38.90
2017-11-29T13:16:51.318Z,37.93
2017-11-29T13:19:18.794Z,30.60
2017-11-29T13:21:46.271Z,27.90
2017-11-29T13:24:13.731Z,26.07
2017-11-29T13:26:41.218Z,28.07
2017-11-29T13:29:08.716Z,28.10
2017-11-29T13:31:36.963Z,28.50
2017-11-29T13:34:05.250Z,25.07
2017-11-29T13:36:34.410Z,35.17
2017-11-29T13:39:01.879Z,26.23
2017-11-29T13:41:29.368Z,30.33
2017-11-29T13:43:56.899Z,38.07
2017-11-29T13:46:25.174Z,37.10
2017-11-29T13:48:52.640Z,61.37
2017-11-29T13:51:20.130Z,26.67
2017-11-29T13:53:47.618Z,28.43
2017-11-29T13:56:15.129Z,29.73
2017-11-29T13:58:42.587Z,28.17
2017-11-29T14:01:10.088Z,30.90
2017-11-29T14:03:37.609Z,29.40
2017-11-29T14:06:05.891Z,28.90
2017-11-29T14:08:35.126Z,36.20
2017-11-29T14:11:02.580Z,33.23
2017-11-29T14:13:30.083Z,30.80
2017-11-29T14:15:57.558Z,28.25
2017-11-29T14:18:25.787Z,45.07
2017-11-29T14:20:53.376Z,29.80
2017-11-29T14:23:20.887Z,37.90
2017-11-29T14:25:48.422Z,36.73
2017-11-29T14:28:16.640Z,43.17
2017-11-29T14:30:44.244Z,43.47
2017-11-29T14:33:11.802Z,27.07
2017-11-29T14:35:39.270Z,34.90
2017-11-29T14:38:07.529Z,31.60
2017-11-29T14:40:35.017Z,35.03
2017-11-29T14:43:02.496Z,25.43
2017-11-29T14:45:29.990Z,35.40
2017-11-29T14:47:57.466Z,29.07
2017-11-29T14:50:24.935Z,29.40
2017-11-29T14:52:53.732Z,30.10
2017-11-29T14:55:21.212Z,31.07
2017-11-29T14:57:49.514Z,27.90
2017-11-29T15:00:17.000Z,38.27
2017-11-29T15:02:44.454Z,33.83
2017-11-29T15:05:11.927Z,31.70
2017-11-29T15:07:39.407Z,23.47
2017-11-29T15:10:07.625Z,30.70
2017-11-29T15:12:35.466Z,31.93
2017-11-29T15:15:02.919Z,28.73
2017-11-29T15:17:30.406Z,33.13
2017-11-29T15:19:57.872Z,29.33
2017-11-29T15:22:25.327Z,29.80
2017-11-29T15:24:52.871Z,32.83
2017-11-29T15:27:20.372Z,36.87
2017-11-29T15:29:47.892Z,32.33
2017-11-29T15:32:15.387Z,36.37
2017-11-29T15:34:42.887Z,40.23
2017-11-29T15:37:10.357Z,31.20
2017-11-29T15:39:37.844Z,33.17
2017-11-29T15:42:06.832Z,29.42
2017-11-29T15:44:34.320Z,34.27
2017-11-29T15:47:01.813Z,28.53
2017-11-29T15:49:29.295Z,30.50
2017-11-29T15:51:56.757Z,37.97
2017-11-29T15:54:24.232Z,39.03
2017-11-29T15:56:51.736Z,33.83
2017-11-29T15:59:19.227Z,40.13
2017-11-29T16:01:46.703Z,43.57
2017-11-29T16:04:14.175Z,38.93
2017-11-29T16:06:41.708Z,41.27
2017-11-29T16:09:09.354Z,38.77
2017-11-29T16:11:36.848Z,34.00
2017-11-29T16:14:04.343Z,37.10
2017-11-29T16:16:31.870Z,45.33
2017-11-29T16:18:59.431Z,52.00
2017-11-29T16:21:26.913Z,51.87
2017-11-29T16:23:55.173Z,56.57
2017-11-29T16:26:22.651Z,42.13
2017-11-29T16:28:50.104Z,51.37
2017-11-29T16:31:17.626Z,38.30
2017-11-29T16:33:45.092Z,38.23
2017-11-29T16:36:12.576Z,39.80
2017-11-29T16:38:40.096Z,40.00
2017-11-29T16:41:07.551Z,44.80
2017-11-29T16:43:35.028Z,43.97
2017-11-29T16:46:02.496Z,40.30
2017-11-29T16:48:29.990Z,41.70
2017-11-29T16:50:58.221Z,37.53
2017-11-29T16:53:25.702Z,38.77
2017-11-29T16:55:53.153Z,36.70
2017-11-29T16:58:20.611Z,39.40
2017-11-29T17:00:48.095Z,35.20
2017-11-29T17:03:15.570Z,35.50
2017-11-29T17:05:43.027Z,43.93
2017-11-29T17:08:10.506Z,37.87
2017-11-29T17:10:38.080Z,44.80
2017-11-29T17:13:05.557Z,43.90
2017-11-29T17:15:33.021Z,45.13
2017-11-29T17:18:00.601Z,39.57
2017-11-29T17:20:28.086Z,43.87
2017-11-29T17:22:55.564Z,45.33
2017-11-29T17:25:23.015Z,40.53
2017-11-29T17:27:50.535Z,35.63
2017-11-29T17:30:17.994Z,45.53
2017-11-29T17:32:46.257Z,33.60
2017-11-29T17:35:13.710Z,39.20
2017-11-29T17:37:41.178Z,29.73
2017-11-29T17:40:08.671Z,31.47
2017-11-29T17:42:36.135Z,32.90
2017-11-29T17:45:03.652Z,36.20
2017-11-29T17:47:31.971Z,33.30
2017-11-29T17:49:59.441Z,36.90
2017-11-29T17:52:26.891Z,29.27
2017-11-29T17:54:54.373Z,29.97
2017-11-29T17:57:21.846Z,24.17
2017-11-29T17:59:49.318Z,37.80
2017-11-29T18:02:16.796Z,32.20
2017-11-29T18:04:44.280Z,37.30
2017-11-29T18:07:11.779Z,36.60
2017-11-29T18:09:39.339Z,32.27
2017-11-29T18:12:06.815Z,35.13
2017-11-29T18:14:34.262Z,38.03
2017-11-29T18:17:01.946Z,54.00
2017-11-29T18:19:29.685Z,40.57
2017-11-29T18:21:58.438Z,46.50
2017-11-29T18:24:27.387Z,36.67
2017-11-29T18:26:55.074Z,36.23
2017-11-29T18:29:22.641Z,34.67
2017-11-29T18:31:50.878Z,43.60
2017-11-29T18:34:18.690Z,36.27
2017-11-29T18:36:46.475Z,32.60
2017-11-29T18:39:14.541Z,32.53
2017-11-29T18:41:42.026Z,39.00
2017-11-29T18:44:09.552Z,40.40
2017-11-29T18:46:37.107Z,36.03
2017-11-29T18:49:04.606Z,36.50
2017-11-29T18:51:32.107Z,32.97
2017-11-29T18:53:59.570Z,38.70
2017-11-29T18:56:27.054Z,34.70
2017-11-29T18:58:55.339Z,68.93
2017-11-29T19:01:23.683Z,41.07
2017-11-29T19:03:51.911Z,37.53
2017-11-29T19:06:20.167Z,41.40
2017-11-29T19:08:47.631Z,39.77
2017-11-29T19:11:15.110Z,37.37
2017-11-29T19:13:42.570Z,38.80
2017-11-29T19:16:10.118Z,36.03
2017-11-29T19:18:37.590Z,38.30
2017-11-29T19:21:05.067Z,33.87
2017-11-29T19:23:32.538Z,39.37
2017-11-29T19:26:00.773Z,41.50
2017-11-29T19:28:28.234Z,38.10
2017-11-29T19:30:55.713Z,40.13
2017-11-29T19:33:23.202Z,39.30
2017-11-29T19:35:50.665Z,33.30
2017-11-29T19:38:18.273Z,43.73
2017-11-29T19:40:45.939Z,36.60
2017-11-29T19:43:13.548Z,37.93
2017-11-29T19:45:41.047Z,36.47
2017-11-29T19:48:09.500Z,42.40
2017-11-29T19:50:36.986Z,43.87
2017-11-29T19:53:04.440Z,50.97
2017-11-29T19:55:32.170Z,48.13
2017-11-29T19:58:01.004Z,50.60
2017-11-29T20:00:28.521Z,55.67
2017-11-29T20:02:57.037Z,51.70
2017-11-29T20:05:24.699Z,49.13
2017-11-29T20:07:52.178Z,39.47
2017-11-29T20:10:19.779Z,51.23
2017-11-29T20:12:47.441Z,69.27
2017-11-29T20:15:15.912Z,47.10
2017-11-29T20:17:43.805Z,44.87
2017-11-29T20:20:11.827Z,34.20
2017-11-29T20:22:41.421Z,39.50
2017-11-29T20:25:09.003Z,37.63
2017-11-29T20:27:36.785Z,40.10
2017-11-29T20:30:04.427Z,37.30
2017-11-29T20:32:32.823Z,41.90
2017-11-29T20:35:01.243Z,53.73
2017-11-29T20:37:29.624Z,46.40
2017-11-29T20:39:58.133Z,44.03
2017-11-29T20:42:26.943Z,43.87
2017-11-29T20:44:54.881Z,43.77
2017-11-29T20:47:22.355Z,47.62
2017-11-29T20:49:50.033Z,44.77
2017-11-29T20:52:29.344Z,42.20
2017-11-29T20:54:56.840Z,43.47
2017-11-29T20:57:24.300Z,50.00
2017-11-29T20:59:52.721Z,40.17
2017-11-29T21:02:20.717Z,51.80
2017-11-29T21:04:48.360Z,50.87
2017-11-29T21:07:15.922Z,67.00
2017-11-29T21:09:43.678Z,39.70
2017-11-29T21:12:11.522Z,32.73
2017-11-29T21:14:39.181Z,50.23
2017-11-29T21:17:06.933Z,44.93
2017-11-29T21:19:35.658Z,43.60
2017-11-29T21:22:03.455Z,42.37
2017-11-29T21:24:31.265Z,38.03
2017-11-29T21:26:58.970Z,48.50
2017-11-29T21:29:26.646Z,53.10
2017-11-29T21:31:54.372Z,38.77
2017-11-29T21:34:22.049Z,47.63
2017-11-29T21:36:49.575Z,50.97
2017-11-29T21:39:17.827Z,43.03
2017-11-29T21:41:45.282Z,48.30
2017-11-29T21:44:12.795Z,52.67
2017-11-29T21:46:40.267Z,42.50
2017-11-29T21:49:07.752Z,44.33
2017-11-29T21:51:35.297Z,39.47
2017-11-29T21:54:02.815Z,48.43
2017-11-29T21:56:30.279Z,45.53
2017-11-29T21:58:57.760Z,47.53
2017-11-29T22:01:25.227Z,45.93
2017-11-29T22:03:52.726Z,45.63
2017-11-29T22:06:20.186Z,49.17
2017-11-29T22:08:48.422Z,42.60
2017-11-29T22:11:16.672Z,48.77
2017-11-29T22:13:44.171Z,44.40
2017-11-29T22:16:12.840Z,43.85
2017-11-29T22:18:40.291Z,44.00
2017-11-29T22:21:07.790Z,40.27
2017-11-29T22:23:35.317Z,45.10
2017-11-29T22:26:02.828Z,47.53
2017-11-29T22:28:30.303Z,47.67
2017-11-29T22:30:57.765Z,49.93
2017-11-29T22:33:25.271Z,51.93
2017-11-29T22:35:53.642Z,53.47
2017-11-29T22:38:21.107Z,49.90
2017-11-29T22:40:48.566Z,42.47
2017-11-29T22:43:16.079Z,43.00
2017-11-29T22:45:43.538Z,47.53
2017-11-29T22:48:11.019Z,46.67
2017-11-29T22:50:39.278Z,50.13
2017-11-29T22:53:06.754Z,53.27
2017-11-29T22:55:34.318Z,45.73
2017-11-29T22:58:01.770Z,51.67
2017-11-29T23:00:29.287Z,54.43
2017-11-29T23:02:56.748Z,49.67
2017-11-29T23:05:24.982Z,45.10
2017-11-29T23:07:52.470Z,56.00
2017-11-29T23:10:19.926Z,54.67
2017-11-29T23:12:47.426Z,49.20
2017-11-29T23:15:14.987Z,53.50
2017-11-29T23:17:43.692Z,54.38
2017-11-29T23:20:11.175Z,48.20
2017-11-29T23:22:38.759Z,65.27
2017-11-29T23:25:07.074Z,53.30
2017-11-29T23:27:34.696Z,49.67
2017-11-29T23:30:02.999Z,56.37
2017-11-29T23:32:30.485Z,55.37
2017-11-29T23:34:58.001Z,56.83
2017-11-29T23:37:26.267Z,59.17
2017-11-29T23:39:53.745Z,51.20
2017-11-29T23:42:21.251Z,57.03
2017-11-29T23:44:48.709Z,56.97
2017-11-29T23:47:16.217Z,56.60
2017-11-29T23:49:44.438Z,66.47
2017-11-29T23:52:11.888Z,56.80
2017-11-29T23:54:39.535Z,62.03
2017-11-29T23:57:07.063Z,51.10
2017-11-29T23:59:35.306Z,53.13
